createdAt,value
2022-11-16T00:00:05.796Z,8.63
2022-11-16T00:02:46.927Z,8.87
2022-11-16T00:04:08.849Z,9.02
2022-11-16T00:05:30.136Z,10.27
2022-11-16T00:06:51.831Z,8.98
2022-11-16T00:08:13.028Z,9.45
2022-11-16T00:09:34.450Z,9.17
2022-11-16T00:10:55.649Z,10.94
2022-11-16T00:12:16.808Z,10.59
2022-11-16T00:13:38.344Z,10.22
2022-11-16T00:14:59.771Z,10.59
2022-11-16T00:16:21.208Z,11.19
2022-11-16T00:17:42.721Z,12.69
2022-11-16T00:19:04.813Z,12.88
2022-11-16T00:20:26.085Z,13.36
2022-11-16T00:22:56.739Z,18.77
2022-11-16T00:24:19.424Z,41.51
2022-11-16T00:25:40.908Z,47.17
2022-11-16T00:27:02.304Z,16.53
2022-11-16T00:28:23.649Z,12.61
2022-11-16T00:29:45.130Z,11.16
2022-11-16T00:31:06.587Z,20.97
2022-11-16T00:32:27.718Z,16.37
2022-11-16T00:33:49.871Z,15.69
2022-11-16T00:35:11.132Z,12.10
2022-11-16T00:36:32.572Z,9.38
2022-11-16T00:37:53.988Z,9.41
2022-11-16T00:39:15.954Z,9.36
2022-11-16T00:40:37.502Z,9.40
2022-11-16T00:41:58.593Z,8.78
2022-11-16T00:43:19.738Z,10.13
2022-11-16T00:44:40.830Z,15.21
2022-11-16T00:46:02.285Z,11.46
2022-11-16T00:47:24.009Z,10.17
2022-11-16T00:48:45.743Z,14.53
2022-11-16T00:50:08.593Z,17.00
2022-11-16T00:51:29.790Z,12.66
2022-11-16T00:52:52.066Z,14.76
2022-11-16T00:54:13.090Z,15.23
2022-11-16T00:55:34.504Z,13.63
2022-11-16T00:56:55.535Z,9.89
2022-11-16T00:58:16.847Z,10.83
2022-11-16T00:59:38.287Z,9.24
2022-11-16T01:02:15.372Z,10.54
2022-11-16T01:03:36.969Z,8.37
2022-11-16T01:04:58.412Z,7.96
2022-11-16T01:06:19.885Z,7.92
2022-11-16T01:07:41.072Z,7.96
2022-11-16T01:09:02.733Z,8.24
2022-11-16T01:10:25.017Z,8.96
2022-11-16T01:11:46.476Z,8.55
2022-11-16T01:13:08.341Z,8.99
2022-11-16T01:14:29.892Z,8.01
2022-11-16T05:13:49.482Z,22.14
2022-11-16T05:15:13.891Z,19.06
2022-11-16T05:16:38.440Z,17.68
2022-11-16T05:18:01.642Z,21.61
2022-11-16T05:19:25.880Z,29.85
2022-11-16T05:22:08.381Z,17.06
2022-11-16T05:23:32.215Z,28.03
2022-11-16T05:24:54.834Z,31.44
2022-11-16T05:26:17.691Z,28.84
2022-11-16T05:27:38.859Z,27.66
2022-11-16T05:29:01.846Z,35.31
2022-11-16T05:30:27.685Z,34.48
2022-11-16T05:31:48.774Z,21.74
2022-11-16T05:33:12.235Z,15.96
2022-11-16T05:34:35.727Z,16.18
2022-11-16T05:35:57.471Z,14.46
2022-11-16T05:37:30.523Z,14.31
2022-11-16T05:40:10.976Z,10.97
2022-11-16T05:41:34.378Z,13.54
2022-11-16T05:42:57.454Z,13.97
2022-11-16T05:44:20.691Z,13.33
2022-11-16T05:45:47.040Z,13.22
2022-11-16T05:47:10.543Z,14.97
2022-11-16T05:48:34.250Z,13.30
2022-11-16T05:49:55.588Z,13.48
2022-11-16T05:51:19.456Z,13.47
2022-11-16T05:52:41.552Z,15.67
2022-11-16T05:54:03.024Z,13.67
2022-11-16T05:55:24.646Z,15.13
2022-11-16T05:56:47.312Z,16.36
2022-11-16T05:58:11.040Z,15.52
2022-11-16T05:59:32.907Z,15.39
2022-11-16T06:02:15.476Z,17.40
2022-11-16T06:03:36.898Z,19.14
2022-11-16T06:04:59.288Z,18.51
2022-11-16T06:07:52.973Z,17.57
2022-11-16T06:09:15.374Z,16.79
2022-11-16T06:10:36.630Z,18.22
2022-11-16T06:12:07.471Z,17.41
2022-11-16T06:13:29.614Z,15.79
2022-11-16T06:14:57.916Z,14.93
2022-11-16T06:16:22.995Z,14.65
2022-11-16T06:17:51.993Z,12.60
2022-11-16T06:19:16.859Z,13.70
2022-11-16T06:20:40.850Z,12.84
2022-11-16T06:22:22.479Z,13.16
2022-11-16T06:27:15.843Z,17.06
2022-11-16T06:28:50.427Z,22.63
2022-11-16T06:30:16.920Z,24.02
2022-11-16T06:33:28.573Z,32.61
2022-11-16T06:36:35.318Z,19.53
2022-11-16T06:39:50.245Z,15.88
2022-11-16T06:41:22.954Z,15.84
2022-11-16T06:49:35.505Z,12.81
2022-11-16T06:51:02.378Z,13.24
2022-11-16T06:52:31.385Z,12.83
2022-11-16T06:54:02.906Z,12.76
2022-11-16T06:55:40.227Z,13.09
2022-11-16T06:57:05.128Z,13.66
2022-11-16T07:05:31.612Z,16.73
2022-11-16T07:06:56.026Z,20.46
2022-11-16T07:08:25.892Z,23.05
2022-11-16T07:11:34.199Z,24.29
2022-11-16T07:16:28.712Z,25.02
2022-11-16T07:17:50.077Z,25.42
2022-11-16T07:19:13.253Z,25.66
2022-11-16T07:20:53.401Z,25.21
2022-11-16T07:24:04.641Z,23.59
2022-11-16T07:33:32.806Z,13.87
2022-11-16T07:36:42.481Z,12.75
2022-11-16T07:38:07.424Z,12.23
2022-11-16T07:39:29.614Z,13.12
2022-11-16T07:40:52.692Z,12.08
2022-11-16T07:42:17.168Z,12.38
2022-11-16T07:43:39.505Z,13.18
2022-11-16T07:45:03.948Z,13.02
2022-11-16T07:51:55.811Z,13.32
2022-11-16T07:53:19.895Z,13.67
2022-11-16T07:54:43.373Z,14.81
2022-11-16T07:56:05.510Z,14.45
2022-11-16T07:57:34.062Z,13.84
2022-11-16T07:59:04.453Z,14.22
2022-11-16T08:00:35.268Z,14.31
2022-11-16T08:02:06.257Z,15.16
2022-11-16T08:03:32.753Z,16.20
2022-11-16T08:04:56.459Z,14.17
2022-11-16T08:06:20.874Z,15.48
2022-11-16T08:09:38.666Z,15.23
2022-11-16T08:34:21.215Z,17.98
2022-11-16T08:36:02.123Z,18.24
2022-11-16T08:50:01.794Z,33.78
2022-11-16T08:58:19.317Z,27.14
2022-11-16T08:59:40.761Z,21.46
2022-11-16T09:01:19.283Z,19.87
2022-11-16T09:02:40.938Z,19.22
2022-11-16T09:04:02.563Z,19.18
2022-11-16T09:05:24.127Z,19.54
2022-11-16T09:06:45.665Z,18.62
2022-11-16T09:08:08.187Z,17.52
2022-11-16T09:09:29.304Z,17.56
2022-11-16T09:10:51.222Z,17.70
2022-11-16T09:12:12.389Z,16.37
2022-11-16T09:13:33.833Z,15.46
2022-11-16T09:14:56.472Z,15.35
2022-11-16T09:17:31.013Z,11.77
2022-11-16T09:18:52.467Z,14.29
2022-11-16T09:20:19.139Z,16.09
2022-11-16T09:21:40.484Z,15.13
2022-11-16T09:23:01.982Z,20.76
2022-11-16T09:24:23.139Z,15.56
2022-11-16T09:25:45.118Z,16.03
2022-11-16T09:27:06.228Z,15.92
2022-11-16T09:28:28.019Z,16.44
2022-11-16T09:29:49.148Z,18.94
2022-11-16T09:31:11.161Z,18.21
2022-11-16T09:32:33.288Z,19.55
2022-11-16T09:33:55.297Z,21.47
2022-11-16T09:35:18.570Z,20.37
2022-11-16T09:36:40.158Z,21.66
2022-11-16T09:38:01.242Z,19.92
2022-11-16T09:39:31.641Z,20.06
2022-11-16T09:40:46.110Z,20.02
2022-11-16T09:42:29.153Z,19.65
2022-11-16T09:45:17.174Z,18.09
2022-11-16T09:46:40.856Z,16.83
2022-11-16T09:48:03.464Z,16.23
2022-11-16T09:50:49.167Z,15.63
2022-11-16T09:53:36.585Z,12.31
2022-11-16T09:54:59.839Z,15.68
2022-11-16T09:57:44.210Z,13.66
2022-11-16T10:02:51.474Z,12.94
2022-11-16T10:10:18.019Z,15.71
2022-11-16T10:14:20.646Z,10.96
2022-11-16T10:16:13.328Z,11.37
2022-11-16T10:32:23.529Z,8.58
2022-11-16T10:37:34.122Z,9.91
2022-11-16T10:47:59.188Z,8.40
2022-11-16T10:49:59.089Z,6.10
2022-11-16T10:51:20.789Z,6.27
2022-11-16T10:52:42.317Z,6.44
2022-11-16T10:55:23.004Z,6.18
2022-11-16T10:56:47.871Z,6.57
2022-11-16T10:58:09.031Z,6.76
2022-11-16T10:59:44.808Z,6.49
2022-11-16T11:01:09.704Z,5.91
2022-11-16T11:04:28.062Z,5.58
2022-11-16T11:05:51.761Z,7.08
2022-11-16T11:07:25.196Z,8.73
2022-11-16T11:09:16.626Z,7.97
2022-11-16T11:10:39.247Z,6.81
2022-11-16T11:12:16.716Z,6.79
2022-11-16T11:13:38.242Z,7.17
2022-11-16T11:15:12.219Z,6.81
2022-11-16T11:16:33.636Z,6.56
2022-11-16T11:18:09.430Z,6.98
2022-11-16T11:19:30.739Z,5.90
2022-11-16T11:21:11.118Z,6.50
2022-11-16T11:22:33.970Z,7.76
2022-11-16T11:23:59.412Z,6.55
2022-11-16T11:25:30.249Z,7.76
2022-11-16T11:26:53.068Z,8.14
2022-11-16T11:29:53.826Z,7.38
2022-11-16T11:31:20.363Z,8.03
2022-11-16T11:32:47.504Z,7.79
2022-11-16T11:34:29.494Z,10.73
2022-11-16T11:35:56.734Z,9.54
2022-11-16T11:37:27.496Z,8.08
2022-11-16T11:39:03.763Z,7.83
2022-11-16T11:40:26.325Z,7.84
2022-11-16T11:42:02.959Z,7.44
2022-11-16T11:43:24.356Z,6.48
2022-11-16T11:46:18.577Z,6.06
2022-11-16T11:48:01.688Z,7.18
2022-11-16T11:51:00.306Z,7.07
2022-11-16T11:52:39.040Z,5.47
2022-11-16T11:54:04.651Z,5.28
2022-11-16T11:55:26.139Z,6.01
2022-11-16T11:58:05.731Z,5.68
2022-11-16T11:59:26.819Z,6.83
2022-11-16T12:02:25.993Z,4.29
2022-11-16T12:04:02.394Z,7.59
2022-11-16T22:43:15.165Z,1.24
